createdAt,value
2022-08-03T00:00:39.634Z,2.13
2022-08-03T00:03:07.405Z,2.17
2022-08-03T00:05:35.479Z,2.42
2022-08-03T00:08:03.094Z,1.70
2022-08-03T00:10:32.830Z,2.10
2022-08-03T00:13:00.176Z,2.00
2022-08-03T00:15:29.162Z,2.00
2022-08-03T00:17:57.493Z,2.28
2022-08-03T00:20:25.654Z,2.05
2022-08-03T00:22:53.135Z,2.15
2022-08-03T00:25:20.838Z,2.10
2022-08-03T00:27:48.505Z,2.05
2022-08-03T00:30:18.477Z,2.15
2022-08-03T00:32:47.586Z,2.03
2022-08-03T00:35:36.570Z,2.20
2022-08-03T00:38:05.433Z,2.30
2022-08-03T00:40:36.175Z,2.85
2022-08-03T00:43:08.294Z,2.45
2022-08-03T00:45:39.104Z,2.92
2022-08-03T00:48:29.786Z,2.55
2022-08-03T00:50:59.024Z,2.78
2022-08-03T00:53:27.842Z,1.80
2022-08-03T00:55:55.856Z,1.60
2022-08-03T00:58:24.223Z,2.00
2022-08-03T01:00:52.747Z,1.73
2022-08-03T01:03:21.770Z,1.85
2022-08-03T01:05:52.394Z,1.83
2022-08-03T01:08:26.126Z,1.80
2022-08-03T01:10:57.378Z,2.20
2022-08-03T01:14:01.125Z,1.80
2022-08-03T01:16:36.018Z,2.15
2022-08-03T01:19:36.556Z,1.77
2022-08-03T01:22:37.254Z,1.85
2022-08-03T01:25:31.422Z,1.90
2022-08-03T01:28:15.293Z,2.15
2022-08-03T01:33:39.336Z,1.60
2022-08-03T01:36:16.095Z,1.70
2022-08-03T01:38:48.849Z,2.00
2022-08-03T01:41:30.400Z,1.88
2022-08-03T01:44:29.139Z,2.00
2022-08-03T01:46:50.790Z,1.83
2022-08-03T01:49:20.195Z,2.20
2022-08-03T01:52:04.033Z,1.90
2022-08-03T01:54:40.977Z,2.38
2022-08-03T01:57:10.895Z,2.05
2022-08-03T01:59:40.810Z,1.85
2022-08-03T02:02:16.076Z,1.80
2022-08-03T02:05:05.568Z,2.13
2022-08-03T02:07:43.551Z,2.13
2022-08-03T02:10:16.474Z,2.30
2022-08-03T02:13:09.169Z,1.83
2022-08-03T02:15:38.922Z,2.38
2022-08-03T02:18:11.230Z,2.20
2022-08-03T02:20:42.056Z,2.13
2022-08-03T02:23:10.988Z,3.80
2022-08-03T02:25:44.928Z,3.47
2022-08-03T02:28:31.643Z,3.17
2022-08-03T02:31:04.843Z,1.63
2022-08-03T02:33:38.727Z,2.03
2022-08-03T02:36:08.643Z,1.85
2022-08-03T02:38:42.563Z,1.52
2022-08-03T02:41:17.487Z,2.90
2022-08-03T02:44:06.145Z,2.67
2022-08-03T02:46:40.029Z,1.95
2022-08-03T02:49:41.359Z,2.60
2022-08-03T02:51:59.868Z,2.03
2022-08-03T02:54:29.481Z,2.10
2022-08-03T02:56:58.664Z,2.22
2022-08-03T02:59:31.901Z,2.20
2022-08-03T03:02:02.288Z,2.40
2022-08-03T03:04:33.066Z,2.40
2022-08-03T03:07:04.418Z,2.40
2022-08-03T03:09:40.404Z,2.40
2022-08-03T03:12:11.498Z,2.33
2022-08-03T03:14:39.946Z,3.35
2022-08-03T03:17:10.808Z,2.20
2022-08-03T03:19:42.185Z,2.30
2022-08-03T03:22:14.816Z,2.10
2022-08-03T03:24:44.346Z,2.13
2022-08-03T03:27:16.781Z,2.42
2022-08-03T03:29:45.944Z,2.42
2022-08-03T03:32:14.067Z,2.45
2022-08-03T03:34:42.752Z,2.47
2022-08-03T03:37:13.556Z,2.22
2022-08-03T03:39:42.614Z,2.13
2022-08-03T03:42:10.127Z,2.17
2022-08-03T03:44:38.841Z,2.22
2022-08-03T03:47:06.724Z,2.47
2022-08-03T03:49:35.180Z,2.40
2022-08-03T03:52:07.574Z,2.00
2022-08-03T03:54:45.615Z,2.10
2022-08-03T03:57:14.436Z,1.80
2022-08-03T03:59:43.482Z,2.35
2022-08-03T04:02:12.903Z,2.20
2022-08-03T04:05:00.753Z,2.20
2022-08-03T04:07:57.908Z,1.70
2022-08-03T04:10:47.270Z,2.00
2022-08-03T04:13:17.433Z,2.00
2022-08-03T04:15:47.371Z,2.03
2022-08-03T04:18:18.291Z,1.88
2022-08-03T04:20:49.291Z,2.08
2022-08-03T04:23:21.450Z,1.92
2022-08-03T04:25:53.126Z,2.03
2022-08-03T04:28:31.184Z,1.85
2022-08-03T04:31:01.978Z,1.77
2022-08-03T04:33:33.092Z,1.55
2022-08-03T04:36:06.844Z,1.60
2022-08-03T04:38:40.070Z,1.85
2022-08-03T04:41:08.895Z,1.90
2022-08-03T04:43:42.992Z,1.80
2022-08-03T04:46:14.886Z,1.70
2022-08-03T04:48:44.858Z,1.77
2022-08-03T04:51:14.326Z,1.90
2022-08-03T04:53:44.864Z,2.35
2022-08-03T04:56:12.466Z,2.00
2022-08-03T04:58:40.512Z,1.85
2022-08-03T05:01:08.358Z,2.10
2022-08-03T05:03:37.931Z,2.03
2022-08-03T05:06:11.147Z,1.92
2022-08-03T05:08:46.481Z,1.60
2022-08-03T05:11:18.040Z,2.28
2022-08-03T05:13:45.936Z,1.90
2022-08-03T05:16:16.514Z,2.28
2022-08-03T05:18:45.331Z,2.10
2022-08-03T05:21:17.770Z,1.98
2022-08-03T05:23:45.499Z,1.90
2022-08-03T05:26:13.199Z,1.70
2022-08-03T05:28:40.760Z,1.70
2022-08-03T05:31:19.873Z,2.20
2022-08-03T05:33:49.061Z,1.77
2022-08-03T05:36:17.305Z,2.30
2022-08-03T05:38:45.491Z,2.17
2022-08-03T05:41:21.591Z,2.05
2022-08-03T05:43:55.658Z,1.95
2022-08-03T05:46:23.288Z,2.22
2022-08-03T05:48:51.482Z,2.00
2022-08-03T05:51:20.395Z,2.17
2022-08-03T05:53:48.286Z,2.30
2022-08-03T05:56:16.523Z,1.73
2022-08-03T05:58:48.085Z,2.25
2022-08-03T06:01:17.078Z,2.85
2022-08-03T06:03:48.008Z,2.45
2022-08-03T06:06:16.918Z,2.40
2022-08-03T06:08:47.557Z,2.33
2022-08-03T06:11:20.878Z,2.63
2022-08-03T06:23:54.830Z,2.60
2022-08-03T06:26:24.737Z,2.63
2022-08-03T06:28:54.143Z,2.30
2022-08-03T06:31:32.698Z,2.65
2022-08-03T06:34:30.988Z,2.67
2022-08-03T06:36:52.432Z,2.50
2022-08-03T06:39:23.458Z,2.42
2022-08-03T06:41:54.819Z,2.55
2022-08-03T06:44:23.692Z,2.25
2022-08-03T06:46:52.502Z,2.30
2022-08-03T06:49:21.616Z,2.40
2022-08-03T06:52:06.154Z,2.60
2022-08-03T06:54:35.674Z,2.35
2022-08-03T06:57:04.963Z,2.47
2022-08-03T07:00:10.656Z,2.67
2022-08-03T07:02:20.648Z,2.20
2022-08-03T07:04:49.204Z,2.53
2022-08-03T07:07:17.570Z,2.75
2022-08-03T07:09:56.616Z,2.72
2022-08-03T07:12:27.533Z,2.47
2022-08-03T07:15:00.363Z,2.75
2022-08-03T07:17:30.088Z,2.15
2022-08-03T07:19:59.307Z,2.47
2022-08-03T07:22:27.013Z,2.67
2022-08-03T07:24:54.579Z,2.50
2022-08-03T07:27:22.514Z,2.45
2022-08-03T07:29:49.949Z,2.45
2022-08-03T07:32:17.510Z,2.40
2022-08-03T07:34:45.064Z,2.30
2022-08-03T07:37:12.497Z,2.28
2022-08-03T07:39:40.075Z,2.28
2022-08-03T07:42:07.719Z,2.50
2022-08-03T07:44:36.091Z,2.33
2022-08-03T07:47:03.725Z,2.30
2022-08-03T07:49:32.759Z,2.30
2022-08-03T07:52:19.582Z,2.75
2022-08-03T07:54:47.141Z,2.70
2022-08-03T07:57:14.600Z,2.67
2022-08-03T07:59:56.550Z,2.33
2022-08-03T08:02:25.440Z,2.38
2022-08-03T08:04:54.991Z,2.50
2022-08-03T08:07:29.608Z,2.60
2022-08-03T08:10:02.368Z,2.08
2022-08-03T08:12:32.667Z,2.65
2022-08-03T08:15:09.851Z,2.83
2022-08-03T08:17:50.878Z,2.50
2022-08-03T08:20:28.273Z,2.70
2022-08-03T08:23:03.657Z,2.83
2022-08-03T08:25:52.196Z,2.95
2022-08-03T08:28:30.485Z,3.38
2022-08-03T08:31:04.594Z,3.05
2022-08-03T08:34:03.028Z,2.80
2022-08-03T08:36:24.199Z,3.08
2022-08-03T08:38:51.644Z,3.50
2022-08-03T08:41:19.422Z,3.10
2022-08-03T08:43:46.887Z,2.95
2022-08-03T08:46:23.452Z,2.95
2022-08-03T08:48:53.037Z,2.70
2022-08-03T08:51:22.689Z,2.70
2022-08-03T08:53:53.620Z,2.88
2022-08-03T08:56:25.460Z,2.90
2022-08-03T08:58:58.904Z,2.55
2022-08-03T09:01:26.919Z,2.90
2022-08-03T09:03:54.939Z,2.92
2022-08-03T09:06:23.038Z,2.65
2022-08-03T09:08:51.596Z,2.90
2022-08-03T09:11:54.440Z,2.80
2022-08-03T09:14:35.310Z,2.75
2022-08-03T09:17:03.011Z,2.58
2022-08-03T09:19:33.179Z,2.40
2022-08-03T09:22:18.662Z,2.30
2022-08-03T09:27:47.038Z,2.45
2022-08-03T09:30:33.930Z,2.03
2022-08-03T09:33:05.004Z,2.50
2022-08-03T09:38:27.289Z,2.17
2022-08-03T09:41:00.060Z,2.45
2022-08-03T09:43:28.625Z,2.00
2022-08-03T09:46:07.434Z,2.35
2022-08-03T09:48:36.794Z,2.15
2022-08-03T09:51:13.536Z,2.25
2022-08-03T09:53:58.781Z,2.45
2022-08-03T09:56:41.371Z,2.47
2022-08-03T09:59:10.860Z,2.75
2022-08-03T10:01:41.838Z,2.58
2022-08-03T10:04:14.290Z,2.45
2022-08-03T10:06:42.133Z,2.53
2022-08-03T10:09:13.859Z,2.20
2022-08-03T10:11:43.308Z,2.50
2022-08-03T10:14:19.072Z,2.30
2022-08-03T10:16:48.598Z,2.35
2022-08-03T10:19:17.015Z,2.78
2022-08-03T10:21:56.373Z,2.03
2022-08-03T10:24:28.253Z,2.50
2022-08-03T10:27:02.918Z,2.45
2022-08-03T10:29:37.269Z,2.77
2022-08-03T10:32:14.644Z,2.00
2022-08-03T10:34:44.638Z,2.30
2022-08-03T10:37:15.920Z,2.20
2022-08-03T10:39:53.898Z,2.38
2022-08-03T10:42:24.272Z,2.40
2022-08-03T10:45:04.185Z,2.10
2022-08-03T10:47:33.296Z,2.30
2022-08-03T10:50:01.810Z,2.60
2022-08-03T10:52:33.768Z,2.28
2022-08-03T10:55:50.327Z,2.28
2022-08-03T10:58:36.422Z,2.58
2022-08-03T11:01:05.528Z,2.55
2022-08-03T11:03:33.395Z,2.63
2022-08-03T11:06:22.226Z,2.80
2022-08-03T11:09:10.639Z,2.60
2022-08-03T11:11:39.503Z,2.22
2022-08-03T11:14:09.882Z,2.20
2022-08-03T11:16:49.963Z,2.35
2022-08-03T11:19:28.234Z,2.28
2022-08-03T11:21:58.124Z,2.40
2022-08-03T11:24:41.126Z,2.13
2022-08-03T11:27:17.805Z,2.10
2022-08-03T11:30:03.770Z,2.40
2022-08-03T11:32:40.480Z,2.08
2022-08-03T11:35:23.951Z,2.67
2022-08-03T11:38:01.931Z,2.42
2022-08-03T11:40:51.244Z,2.10
2022-08-03T11:43:31.978Z,2.42
2022-08-03T11:46:02.118Z,2.58
2022-08-03T11:48:40.054Z,2.47
2022-08-03T11:51:29.871Z,2.58
2022-08-03T11:54:05.797Z,2.35
2022-08-03T11:56:49.740Z,1.80
2022-08-03T11:59:21.760Z,2.42
2022-08-03T12:01:51.162Z,2.30
2022-08-03T12:04:18.662Z,2.00
2022-08-03T12:07:06.260Z,2.40
2022-08-03T12:09:36.191Z,2.30
2022-08-03T12:12:03.818Z,2.00
2022-08-03T12:14:48.577Z,2.40
2022-08-03T12:17:19.379Z,2.15
2022-08-03T12:19:47.446Z,1.92
2022-08-03T12:22:16.799Z,2.17
2022-08-03T12:24:46.700Z,2.22
2022-08-03T12:27:33.031Z,2.40
2022-08-03T12:30:01.813Z,2.33
2022-08-03T12:32:30.522Z,2.20
2022-08-03T12:35:04.462Z,2.38
2022-08-03T12:37:32.516Z,2.00
2022-08-03T12:40:07.857Z,2.20
2022-08-03T12:42:42.154Z,2.00
2022-08-03T12:45:21.089Z,1.92
2022-08-03T12:47:56.553Z,2.05
2022-08-03T12:50:29.562Z,2.70
2022-08-03T12:53:00.492Z,2.15
2022-08-03T12:55:57.722Z,2.05
2022-08-03T12:58:35.959Z,2.35
2022-08-03T13:01:10.115Z,1.88
2022-08-03T13:03:43.501Z,2.03
2022-08-03T13:06:15.347Z,2.10
2022-08-03T13:08:43.997Z,2.10
2022-08-03T13:11:22.780Z,2.00
2022-08-03T13:13:53.866Z,2.17
2022-08-03T13:16:22.489Z,2.10
2022-08-03T13:18:51.929Z,2.25
2022-08-03T13:21:20.931Z,2.45
2022-08-03T13:23:48.791Z,2.10
2022-08-03T13:26:16.190Z,2.40
2022-08-03T13:28:43.795Z,2.13
2022-08-03T13:31:11.273Z,2.25
2022-08-03T13:33:40.377Z,2.05
2022-08-03T13:36:07.795Z,2.00
2022-08-03T13:38:35.411Z,2.20
2022-08-03T13:41:05.220Z,2.22
2022-08-03T13:43:32.654Z,2.25
2022-08-03T13:46:00.052Z,1.90
2022-08-03T13:48:37.430Z,2.50
2022-08-03T13:51:11.809Z,1.95
2022-08-03T13:53:51.379Z,2.20
2022-08-03T13:56:18.805Z,2.40
2022-08-03T13:58:46.198Z,2.50
2022-08-03T14:01:13.622Z,2.10
2022-08-03T14:03:41.130Z,2.15
2022-08-03T14:06:08.650Z,2.30
2022-08-03T14:08:35.963Z,2.25
2022-08-03T14:11:05.035Z,1.90
2022-08-03T14:13:32.428Z,2.55
2022-08-03T14:15:59.875Z,2.00
2022-08-03T14:18:27.911Z,2.30
2022-08-03T14:21:06.410Z,2.00
2022-08-03T14:23:36.415Z,2.28
2022-08-03T14:26:05.214Z,2.30
2022-08-03T14:28:32.963Z,1.90
2022-08-03T14:31:01.042Z,2.10
2022-08-03T14:33:28.686Z,2.28
2022-08-03T14:35:56.049Z,2.42
2022-08-03T14:38:23.909Z,2.65
2022-08-03T14:40:51.602Z,2.22
2022-08-03T14:43:21.146Z,2.38
2022-08-03T14:45:52.438Z,2.10
2022-08-03T14:50:29.163Z,2.53
2022-08-03T14:51:09.380Z,2.35
2022-08-03T14:53:36.767Z,2.08
2022-08-03T14:56:09.858Z,2.35
2022-08-03T14:58:38.147Z,2.17
2022-08-03T15:02:02.307Z,2.33
2022-08-03T15:03:54.807Z,2.60
2022-08-03T15:06:22.590Z,2.42
2022-08-03T15:09:06.226Z,2.20
2022-08-03T15:11:37.368Z,2.97
2022-08-03T15:14:08.987Z,3.22
2022-08-03T15:16:38.156Z,2.28
2022-08-03T15:20:01.133Z,2.25
2022-08-03T15:21:53.815Z,2.60
2022-08-03T15:24:21.523Z,2.50
2022-08-03T15:26:48.919Z,2.30
2022-08-03T15:30:08.744Z,2.60
2022-08-03T15:32:09.037Z,2.15
2022-08-03T15:34:36.919Z,2.40
2022-08-03T15:37:15.159Z,2.30
2022-08-03T15:39:58.941Z,2.03
2022-08-03T15:42:29.715Z,2.75
2022-08-03T15:44:57.226Z,2.00
2022-08-03T15:47:24.703Z,2.10
2022-08-03T15:49:52.047Z,2.15
2022-08-03T15:52:19.476Z,3.10
2022-08-03T15:54:46.785Z,2.35
2022-08-03T15:57:14.122Z,2.15
2022-08-03T15:59:41.505Z,2.33
2022-08-03T16:02:08.978Z,2.10
2022-08-03T16:04:36.428Z,2.20
2022-08-03T16:07:03.968Z,2.72
2022-08-03T16:09:42.185Z,2.25
2022-08-03T16:12:11.862Z,2.53
2022-08-03T16:14:52.322Z,2.10
2022-08-03T16:17:21.149Z,2.22
2022-08-03T16:19:48.816Z,2.40
2022-08-03T16:22:19.534Z,2.33
2022-08-03T16:24:47.301Z,2.10
2022-08-03T16:27:26.362Z,2.30
2022-08-03T16:30:02.605Z,2.33
2022-08-03T16:32:30.258Z,2.33
2022-08-03T16:34:57.870Z,2.15
2022-08-03T16:37:40.995Z,2.50
2022-08-03T16:40:19.316Z,1.98
2022-08-03T16:42:47.533Z,2.40
2022-08-03T16:45:14.895Z,2.67
2022-08-03T16:47:42.216Z,2.00
2022-08-03T16:50:15.939Z,2.00
2022-08-03T16:52:48.334Z,2.22
2022-08-03T16:55:18.521Z,2.50
2022-08-03T16:58:05.637Z,2.33
2022-08-03T17:00:41.533Z,2.03
2022-08-03T17:03:12.506Z,2.13
2022-08-03T17:05:48.072Z,2.40
2022-08-03T17:08:18.928Z,2.55
2022-08-03T17:10:54.207Z,2.08
2022-08-03T17:13:22.873Z,2.17
2022-08-03T17:15:57.850Z,2.40
2022-08-03T17:18:34.053Z,2.45
2022-08-03T17:21:05.861Z,2.30
2022-08-03T17:23:44.294Z,2.20
2022-08-03T17:26:21.123Z,2.47
2022-08-03T17:28:57.700Z,2.40
2022-08-03T17:31:31.509Z,2.45
2022-08-03T17:34:01.643Z,2.05
2022-08-03T17:36:53.960Z,2.30
2022-08-03T17:39:30.889Z,2.60
2022-08-03T17:42:30.039Z,2.50
2022-08-03T17:44:57.215Z,2.80
2022-08-03T17:47:42.948Z,2.50
2022-08-03T17:50:25.177Z,2.70
2022-08-03T17:53:07.717Z,2.60
2022-08-03T17:55:56.991Z,2.90
2022-08-03T17:58:54.669Z,2.53
2022-08-03T18:02:00.101Z,2.72
2022-08-03T18:04:41.657Z,2.78
2022-08-03T18:07:12.507Z,2.60
2022-08-03T18:10:06.362Z,2.63
2022-08-03T18:12:51.779Z,2.33
2022-08-03T18:15:26.959Z,2.35
2022-08-03T18:20:53.842Z,2.67
2022-08-03T18:23:36.319Z,2.35
2022-08-03T18:26:10.712Z,2.70
2022-08-03T18:28:40.617Z,2.72
2022-08-03T18:31:11.928Z,2.50
2022-08-03T18:34:16.919Z,3.00
2022-08-03T18:36:29.946Z,2.65
2022-08-03T18:39:02.600Z,2.90
2022-08-03T18:41:35.073Z,2.40
2022-08-03T18:44:08.023Z,2.60
2022-08-03T18:47:17.700Z,2.70
2022-08-03T18:50:20.258Z,2.80
2022-08-03T18:53:16.280Z,2.65
2022-08-03T18:56:02.391Z,2.65
2022-08-03T18:58:47.706Z,3.13
2022-08-03T19:02:00.707Z,2.85
2022-08-03T19:04:35.698Z,3.20
2022-08-03T19:09:59.183Z,3.40
2022-08-03T19:12:51.568Z,3.40
2022-08-03T19:15:37.012Z,3.80
2022-08-03T19:18:11.257Z,3.17
2022-08-03T19:20:39.708Z,4.20
2022-08-03T19:23:08.163Z,2.90
2022-08-03T19:25:40.440Z,2.97
2022-08-03T19:28:09.225Z,3.13
2022-08-03T19:30:53.284Z,3.78
2022-08-03T19:33:21.566Z,3.20
2022-08-03T19:35:55.622Z,2.88
2022-08-03T19:38:28.531Z,2.87
2022-08-03T19:41:00.834Z,2.70
2022-08-03T19:46:30.571Z,2.85
2022-08-03T19:50:04.826Z,2.92
2022-08-03T19:52:16.993Z,2.60
2022-08-03T19:54:54.592Z,3.08
2022-08-03T19:57:28.560Z,2.78
2022-08-03T19:59:57.694Z,3.05
2022-08-03T20:05:14.909Z,3.00
2022-08-03T20:07:48.067Z,3.15
2022-08-03T20:10:17.895Z,2.70
2022-08-03T20:12:46.666Z,2.90
2022-08-03T20:15:22.190Z,3.63
2022-08-03T20:17:59.362Z,3.65
2022-08-03T20:20:32.816Z,2.80
2022-08-03T20:23:06.782Z,3.10
2022-08-03T20:25:48.824Z,2.85
2022-08-03T20:28:49.856Z,2.97
2022-08-03T20:31:23.791Z,2.90
2022-08-03T20:33:59.478Z,2.92
2022-08-03T20:36:26.984Z,3.25
2022-08-03T20:38:58.009Z,3.00
2022-08-03T20:41:25.797Z,3.13
2022-08-03T20:43:53.271Z,3.03
2022-08-03T20:46:31.946Z,2.88
2022-08-03T20:49:05.269Z,2.80
2022-08-03T20:51:49.193Z,2.90
2022-08-03T20:54:28.602Z,3.10
2022-08-03T20:57:03.847Z,2.90
2022-08-03T20:59:50.519Z,3.13
2022-08-03T21:02:29.732Z,2.70
2022-08-03T21:05:08.520Z,2.78
2022-08-03T21:08:04.021Z,3.15
2022-08-03T21:10:30.272Z,3.33
2022-08-03T21:12:57.499Z,2.80
2022-08-03T21:13:10.803Z,3.13
2022-08-03T21:13:12.958Z,3.22
2022-08-03T21:13:16.813Z,3.10
2022-08-03T21:16:06.563Z,3.20
2022-08-03T21:18:39.293Z,2.97
2022-08-03T21:21:09.063Z,2.83
2022-08-03T21:23:48.830Z,2.90
2022-08-03T21:26:19.890Z,3.10
2022-08-03T21:28:49.593Z,3.30
2022-08-03T21:31:24.282Z,3.20
2022-08-03T21:33:55.764Z,3.08
2022-08-03T21:36:23.889Z,3.35
2022-08-03T21:38:56.530Z,3.17
2022-08-03T21:41:26.198Z,3.10
2022-08-03T21:43:53.560Z,2.75
2022-08-03T21:46:22.864Z,3.17
2022-08-03T21:49:52.064Z,2.90
2022-08-03T21:51:50.076Z,2.80
2022-08-03T21:54:21.602Z,3.13
2022-08-03T21:56:51.381Z,2.90
2022-08-03T21:59:23.009Z,2.78
2022-08-03T22:01:55.433Z,3.35
2022-08-03T22:04:50.692Z,3.47
2022-08-03T22:07:15.989Z,3.28
2022-08-03T22:09:50.121Z,3.50
2022-08-03T22:15:00.741Z,3.30
2022-08-03T22:17:55.708Z,3.10
2022-08-03T22:20:19.922Z,3.08
2022-08-03T22:22:55.675Z,3.17
2022-08-03T22:25:28.702Z,3.25
2022-08-03T22:27:58.669Z,3.30
2022-08-03T22:30:26.226Z,3.42
2022-08-03T22:32:54.705Z,3.00
2022-08-03T22:35:24.824Z,3.42
2022-08-03T22:37:54.631Z,3.30
2022-08-03T22:40:22.369Z,3.25
2022-08-03T22:42:52.123Z,3.10
2022-08-03T22:46:08.014Z,3.58
2022-08-03T22:48:08.509Z,3.35
2022-08-03T22:50:35.906Z,3.10
2022-08-03T22:53:03.472Z,2.75
2022-08-03T22:55:31.448Z,3.20
2022-08-03T22:57:58.899Z,2.90
2022-08-03T23:00:26.381Z,2.90
2022-08-03T23:02:56.912Z,2.90
2022-08-03T23:06:00.693Z,3.00
2022-08-03T23:08:20.521Z,3.15
2022-08-03T23:10:48.654Z,3.22
2022-08-03T23:13:17.610Z,2.75
2022-08-03T23:15:55.336Z,3.00
2022-08-03T23:18:24.368Z,2.83
2022-08-03T23:20:53.282Z,3.22
2022-08-03T23:23:20.951Z,3.00
2022-08-03T23:25:50.701Z,3.08
2022-08-03T23:28:19.186Z,3.05
2022-08-03T23:30:49.733Z,3.28
2022-08-03T23:33:18.126Z,3.58
2022-08-03T23:36:20.046Z,2.90
2022-08-03T23:38:45.004Z,3.22
2022-08-03T23:41:13.538Z,3.00
2022-08-03T23:43:52.263Z,3.28
2022-08-03T23:46:22.612Z,2.78
2022-08-03T23:48:50.943Z,3.25
2022-08-03T23:51:41.178Z,2.90
2022-08-03T23:54:14.687Z,3.00
2022-08-03T23:56:57.169Z,3.00
2022-08-03T23:59:40.713Z,2.67
